sensor_id;sensor_type;location;lat;lon;timestamp;pressure;altitude;pressure_sealevel;temperature;humidity
9523;BME280;63165;43.016;25.784;2023-01-26T00:01:08;101053.19;;;3.25;83.07
9523;BME280;63165;43.016;25.784;2023-01-26T00:03:36;101057.50;;;3.24;83.09
9523;BME280;63165;43.016;25.784;2023-01-26T00:06:04;101046.19;;;3.21;83.09
9523;BME280;63165;43.016;25.784;2023-01-26T00:08:34;101046.94;;;3.17;83.17
9523;BME280;63165;43.016;25.784;2023-01-26T00:11:03;101057.22;;;3.15;83.19
9523;BME280;63165;43.016;25.784;2023-01-26T00:13:31;101064.16;;;3.16;83.48
9523;BME280;63165;43.016;25.784;2023-01-26T00:16:00;101049.59;;;3.20;83.46
9523;BME280;63165;43.016;25.784;2023-01-26T00:18:28;101050.44;;;3.19;83.63
9523;BME280;63165;43.016;25.784;2023-01-26T00:20:55;101050.38;;;3.17;83.28
9523;BME280;63165;43.016;25.784;2023-01-26T00:23:23;101054.72;;;3.18;83.72
9523;BME280;63165;43.016;25.784;2023-01-26T00:25:51;101058.25;;;3.20;83.36
9523;BME280;63165;43.016;25.784;2023-01-26T00:28:18;101053.88;;;3.19;83.45
9523;BME280;63165;43.016;25.784;2023-01-26T00:30:46;101053.94;;;3.21;83.77
9523;BME280;63165;43.016;25.784;2023-01-26T00:33:15;101047.91;;;3.20;83.89
9523;BME280;63165;43.016;25.784;2023-01-26T00:35:42;101044.41;;;3.20;83.68
9523;BME280;63165;43.016;25.784;2023-01-26T00:38:10;101045.22;;;3.17;83.93
9523;BME280;63165;43.016;25.784;2023-01-26T00:40:37;101038.31;;;3.18;83.50
9523;BME280;63165;43.016;25.784;2023-01-26T00:43:05;101041.88;;;3.21;83.68
9523;BME280;63165;43.016;25.784;2023-01-26T00:45:33;101033.28;;;3.22;83.63
9523;BME280;63165;43.016;25.784;2023-01-26T00:48:01;101038.41;;;3.21;83.54
9523;BME280;63165;43.016;25.784;2023-01-26T00:50:30;101022.91;;;3.21;83.68
9523;BME280;63165;43.016;25.784;2023-01-26T00:52:58;101020.41;;;3.24;83.60
9523;BME280;63165;43.016;25.784;2023-01-26T00:55:25;101017.03;;;3.26;83.45
9523;BME280;63165;43.016;25.784;2023-01-26T00:57:57;101004.91;;;3.25;83.38
9523;BME280;63165;43.016;25.784;2023-01-26T01:00:24;100998.88;;;3.25;82.84
9523;BME280;63165;43.016;25.784;2023-01-26T01:02:52;100989.38;;;3.24;82.84
9523;BME280;63165;43.016;25.784;2023-01-26T01:05:20;100990.25;;;3.24;82.92
9523;BME280;63165;43.016;25.784;2023-01-26T01:07:49;100985.13;;;3.26;82.91
9523;BME280;63165;43.016;25.784;2023-01-26T01:10:17;100985.19;;;3.27;83.18
9523;BME280;63165;43.016;25.784;2023-01-26T01:12:44;100990.38;;;3.29;83.31
9523;BME280;63165;43.016;25.784;2023-01-26T01:15:12;100980.88;;;3.28;82.82
9523;BME280;63165;43.016;25.784;2023-01-26T01:17:39;100982.59;;;3.29;82.56
9523;BME280;63165;43.016;25.784;2023-01-26T01:20:09;100986.09;;;3.29;82.67
9523;BME280;63165;43.016;25.784;2023-01-26T01:22:37;100984.38;;;3.30;82.27
9523;BME280;63165;43.016;25.784;2023-01-26T01:25:06;100974.88;;;3.30;82.84
9523;BME280;63165;43.016;25.784;2023-01-26T01:27:34;100974.06;;;3.32;82.71
9523;BME280;63165;43.016;25.784;2023-01-26T01:30:01;100974.94;;;3.32;82.63
9523;BME280;63165;43.016;25.784;2023-01-26T01:32:33;100969.75;;;3.32;82.67
9523;BME280;63165;43.016;25.784;2023-01-26T01:35:02;100962.09;;;3.35;82.76
9523;BME280;63165;43.016;25.784;2023-01-26T01:37:30;100963.88;;;3.38;82.83
9523;BME280;63165;43.016;25.784;2023-01-26T01:39:58;100958.72;;;3.38;82.93
9523;BME280;63165;43.016;25.784;2023-01-26T01:42:27;100960.44;;;3.37;83.09
9523;BME280;63165;43.016;25.784;2023-01-26T01:45:28;100963.06;;;3.39;83.67
9523;BME280;63165;43.016;25.784;2023-01-26T01:48:03;100961.25;;;3.36;83.52
9523;BME280;63165;43.016;25.784;2023-01-26T01:50:36;100959.50;;;3.35;83.70
9523;BME280;63165;43.016;25.784;2023-01-26T01:53:06;100948.28;;;3.35;83.99
9523;BME280;63165;43.016;25.784;2023-01-26T01:55:35;100944.03;;;3.37;83.78
9523;BME280;63165;43.016;25.784;2023-01-26T01:58:04;100952.66;;;3.37;83.90
9523;BME280;63165;43.016;25.784;2023-01-26T02:00:33;100952.63;;;3.36;84.12
9523;BME280;63165;43.016;25.784;2023-01-26T02:03:02;100948.28;;;3.35;84.07
9523;BME280;63165;43.016;25.784;2023-01-26T02:05:43;100946.63;;;3.37;84.13
9523;BME280;63165;43.016;25.784;2023-01-26T02:08:15;100942.28;;;3.36;83.93
9523;BME280;63165;43.016;25.784;2023-01-26T02:10:46;100937.09;;;3.36;83.67
9523;BME280;63165;43.016;25.784;2023-01-26T02:13:17;100931.06;;;3.35;83.53
9523;BME280;63165;43.016;25.784;2023-01-26T02:15:45;100932.78;;;3.36;83.39
9523;BME280;63165;43.016;25.784;2023-01-26T02:18:13;100925.94;;;3.37;83.40
9523;BME280;63165;43.016;25.784;2023-01-26T02:20:44;100925.09;;;3.38;83.45
9523;BME280;63165;43.016;25.784;2023-01-26T02:23:20;100920.75;;;3.37;83.24
9523;BME280;63165;43.016;25.784;2023-01-26T02:26:05;100920.72;;;3.35;82.91
9523;BME280;63165;43.016;25.784;2023-01-26T02:28:33;100905.09;;;3.32;83.05
9523;BME280;63165;43.016;25.784;2023-01-26T02:31:00;100906.81;;;3.32;82.84
9523;BME280;63165;43.016;25.784;2023-01-26T02:33:30;100901.59;;;3.30;83.12
9523;BME280;63165;43.016;25.784;2023-01-26T02:35:58;100896.44;;;3.30;83.18
9523;BME280;63165;43.016;25.784;2023-01-26T02:38:35;100890.41;;;3.29;82.94
9523;BME280;63165;43.016;25.784;2023-01-26T02:41:07;100884.38;;;3.30;83.28
9523;BME280;63165;43.016;25.784;2023-01-26T02:43:35;100887.81;;;3.31;83.29
9523;BME280;63165;43.016;25.784;2023-01-26T02:46:01;100884.41;;;3.32;83.17
9523;BME280;63165;43.016;25.784;2023-01-26T02:48:29;100884.38;;;3.30;82.96
9523;BME280;63165;43.016;25.784;2023-01-26T02:51:13;100896.44;;;3.30;83.13
9523;BME280;63165;43.016;25.784;2023-01-26T02:53:40;100899.94;;;3.32;83.39
9523;BME280;63165;43.016;25.784;2023-01-26T02:56:10;100888.78;;;3.35;83.34
9523;BME280;63165;43.016;25.784;2023-01-26T02:58:36;100887.91;;;3.34;83.95
9523;BME280;63165;43.016;25.784;2023-01-26T03:01:03;100887.88;;;3.33;83.65
9523;BME280;63165;43.016;25.784;2023-01-26T03:03:31;100888.78;;;3.35;83.75
9523;BME280;63165;43.016;25.784;2023-01-26T03:06:08;100886.19;;;3.35;83.77
9523;BME280;63165;43.016;25.784;2023-01-26T03:08:37;100881.06;;;3.36;84.16
9523;BME280;63165;43.016;25.784;2023-01-26T03:11:05;100870.75;;;3.38;84.20
9523;BME280;63165;43.016;25.784;2023-01-26T03:13:34;100868.22;;;3.39;84.04
9523;BME280;63165;43.016;25.784;2023-01-26T03:16:06;100864.78;;;3.39;83.65
9523;BME280;63165;43.016;25.784;2023-01-26T03:18:35;100869.13;;;3.41;83.72
9523;BME280;63165;43.016;25.784;2023-01-26T03:21:19;100857.91;;;3.41;83.60
9523;BME280;63165;43.016;25.784;2023-01-26T03:24:04;100857.09;;;3.43;83.75
9523;BME280;63165;43.016;25.784;2023-01-26T03:26:50;100864.88;;;3.43;84.39
9523;BME280;63165;43.016;25.784;2023-01-26T03:29:36;100845.03;;;3.42;83.75
9523;BME280;63165;43.016;25.784;2023-01-26T03:32:03;100851.84;;;3.40;84.00
9523;BME280;63165;43.016;25.784;2023-01-26T03:34:31;100846.66;;;3.40;83.72
9523;BME280;63165;43.016;25.784;2023-01-26T03:36:58;100852.69;;;3.39;83.65
9523;BME280;63165;43.016;25.784;2023-01-26T03:39:26;100839.75;;;3.39;83.75
9523;BME280;63165;43.016;25.784;2023-01-26T03:42:10;100838.03;;;3.40;84.13
9523;BME280;63165;43.016;25.784;2023-01-26T03:44:56;100844.09;;;3.40;83.75
9523;BME280;63165;43.016;25.784;2023-01-26T03:47:41;100844.13;;;3.42;84.01
9523;BME280;63165;43.016;25.784;2023-01-26T03:50:25;100841.53;;;3.42;84.23
9523;BME280;63165;43.016;25.784;2023-01-26T03:53:14;100832.91;;;3.41;83.82
9523;BME280;63165;43.016;25.784;2023-01-26T03:55:59;100825.16;;;3.41;83.93
9523;BME280;63165;43.016;25.784;2023-01-26T03:58:47;100823.44;;;3.42;84.04
9523;BME280;63165;43.016;25.784;2023-01-26T04:01:16;100825.91;;;3.37;84.16
9523;BME280;63165;43.016;25.784;2023-01-26T04:03:47;100830.22;;;3.37;84.06
9523;BME280;63165;43.016;25.784;2023-01-26T04:06:32;100818.13;;;3.36;83.70
9523;BME280;63165;43.016;25.784;2023-01-26T04:09:16;100812.84;;;3.33;83.74
9523;BME280;63165;43.016;25.784;2023-01-26T04:11:44;100808.50;;;3.30;83.76
9523;BME280;63165;43.016;25.784;2023-01-26T04:14:12;100811.06;;;3.30;83.65
9523;BME280;63165;43.016;25.784;2023-01-26T04:17:00;100804.03;;;3.24;83.57
9523;BME280;63165;43.016;25.784;2023-01-26T04:19:45;100794.50;;;3.22;83.71
9523;BME280;63165;43.016;25.784;2023-01-26T04:22:29;100803.91;;;3.18;83.69
9523;BME280;63165;43.016;25.784;2023-01-26T04:24:57;100796.13;;;3.18;83.93
9523;BME280;63165;43.016;25.784;2023-01-26T04:27:24;100794.41;;;3.19;84.21
9523;BME280;63165;43.016;25.784;2023-01-26T04:29:52;100786.69;;;3.20;84.23
9523;BME280;63165;43.016;25.784;2023-01-26T04:32:20;100778.09;;;3.21;84.02
9523;BME280;63165;43.016;25.784;2023-01-26T04:34:48;100779.81;;;3.21;84.20
9523;BME280;63165;43.016;25.784;2023-01-26T04:37:15;100779.91;;;3.25;84.13
9523;BME280;63165;43.016;25.784;2023-01-26T04:39:42;100782.53;;;3.27;83.95
9523;BME280;63165;43.016;25.784;2023-01-26T04:42:09;100783.50;;;3.30;84.14
9523;BME280;63165;43.016;25.784;2023-01-26T04:44:37;100785.25;;;3.32;83.83
9523;BME280;63165;43.016;25.784;2023-01-26T04:47:04;100790.47;;;3.35;84.09
9523;BME280;63165;43.016;25.784;2023-01-26T04:49:33;100789.63;;;3.34;84.13
9523;BME280;63165;43.016;25.784;2023-01-26T04:52:00;100785.31;;;3.35;83.92
9523;BME280;63165;43.016;25.784;2023-01-26T04:54:28;100782.72;;;3.35;84.08
9523;BME280;63165;43.016;25.784;2023-01-26T04:56:55;100775.75;;;3.30;83.51
9523;BME280;63165;43.016;25.784;2023-01-26T04:59:22;100773.91;;;3.26;83.53
9523;BME280;63165;43.016;25.784;2023-01-26T05:01:50;100773.84;;;3.23;83.93
9523;BME280;63165;43.016;25.784;2023-01-26T05:04:17;100773.72;;;3.19;83.73
9523;BME280;63165;43.016;25.784;2023-01-26T05:06:46;100768.44;;;3.14;83.82
9523;BME280;63165;43.016;25.784;2023-01-26T05:09:13;100760.56;;;3.09;83.80
9523;BME280;63165;43.016;25.784;2023-01-26T05:11:40;100759.66;;;3.07;84.32
9523;BME280;63165;43.016;25.784;2023-01-26T05:14:07;100758.66;;;3.02;84.17
9523;BME280;63165;43.016;25.784;2023-01-26T05:16:35;100762.91;;;3.00;84.30
9523;BME280;63165;43.016;25.784;2023-01-26T05:19:02;100765.41;;;2.97;84.80
9523;BME280;63165;43.016;25.784;2023-01-26T05:21:30;100757.66;;;2.96;84.90
9523;BME280;63165;43.016;25.784;2023-01-26T05:23:58;100763.69;;;2.96;85.13
9523;BME280;63165;43.016;25.784;2023-01-26T05:26:26;100746.44;;;2.97;85.34
9523;BME280;63165;43.016;25.784;2023-01-26T05:28:53;100757.78;;;3.02;85.72
9523;BME280;63165;43.016;25.784;2023-01-26T05:31:20;100754.34;;;3.01;85.75
9523;BME280;63165;43.016;25.784;2023-01-26T05:33:47;100755.31;;;3.05;86.19
9523;BME280;63165;43.016;25.784;2023-01-26T05:36:15;100751.06;;;3.08;86.29
9523;BME280;63165;43.016;25.784;2023-01-26T05:38:42;100752.91;;;3.13;86.10
9523;BME280;63165;43.016;25.784;2023-01-26T05:41:11;100744.34;;;3.15;86.28
9523;BME280;63165;43.016;25.784;2023-01-26T05:43:39;100742.63;;;3.16;86.08
9523;BME280;63165;43.016;25.784;2023-01-26T05:46:06;100747.00;;;3.18;86.46
9523;BME280;63165;43.016;25.784;2023-01-26T05:48:34;100747.91;;;3.20;86.27
9523;BME280;63165;43.016;25.784;2023-01-26T05:51:01;100742.78;;;3.22;86.44
9523;BME280;63165;43.016;25.784;2023-01-26T05:53:28;100742.78;;;3.23;86.46
9523;BME280;63165;43.016;25.784;2023-01-26T05:55:55;100734.31;;;3.27;86.32
9523;BME280;63165;43.016;25.784;2023-01-26T05:58:24;100736.06;;;3.30;86.45
9523;BME280;63165;43.016;25.784;2023-01-26T06:00:51;100730.03;;;3.29;86.62
9523;BME280;63165;43.016;25.784;2023-01-26T06:03:19;100731.78;;;3.30;86.46
9523;BME280;63165;43.016;25.784;2023-01-26T06:05:52;100729.19;;;3.30;86.58
9523;BME280;63165;43.016;25.784;2023-01-26T06:08:19;100727.50;;;3.33;86.59
9523;BME280;63165;43.016;25.784;2023-01-26T06:10:47;100730.19;;;3.36;86.47
9523;BME280;63165;43.016;25.784;2023-01-26T06:13:14;100722.41;;;3.36;86.46
9523;BME280;63165;43.016;25.784;2023-01-26T06:15:43;100723.25;;;3.35;86.41
9523;BME280;63165;43.016;25.784;2023-01-26T06:18:10;100713.84;;;3.37;86.42
9523;BME280;63165;43.016;25.784;2023-01-26T06:20:38;100712.94;;;3.36;86.19
9523;BME280;63165;43.016;25.784;2023-01-26T06:23:05;100704.31;;;3.36;85.89
9523;BME280;63165;43.016;25.784;2023-01-26T06:25:36;100698.28;;;3.35;85.91
9523;BME280;63165;43.016;25.784;2023-01-26T06:28:04;100694.88;;;3.38;85.97
9523;BME280;63165;43.016;25.784;2023-01-26T06:30:32;100694.91;;;3.39;85.89
9523;BME280;63165;43.016;25.784;2023-01-26T06:33:01;100698.41;;;3.41;85.54
9523;BME280;63165;43.016;25.784;2023-01-26T06:35:28;100688.06;;;3.41;85.59
9523;BME280;63165;43.016;25.784;2023-01-26T06:37:56;100687.09;;;3.38;84.63
9523;BME280;63165;43.016;25.784;2023-01-26T06:40:23;100686.16;;;3.34;84.24
9523;BME280;63165;43.016;25.784;2023-01-26T06:42:50;100667.16;;;3.32;84.39
9523;BME280;63165;43.016;25.784;2023-01-26T06:45:18;100668.78;;;3.28;84.34
9523;BME280;63165;43.016;25.784;2023-01-26T06:47:45;100664.41;;;3.24;84.64
9523;BME280;63165;43.016;25.784;2023-01-26T06:50:15;100650.53;;;3.21;84.56
9523;BME280;63165;43.016;25.784;2023-01-26T06:52:46;100645.34;;;3.21;84.85
9523;BME280;63165;43.016;25.784;2023-01-26T06:55:17;100648.78;;;3.21;85.11
9523;BME280;63165;43.016;25.784;2023-01-26T06:57:46;100654.06;;;3.24;85.45
9523;BME280;63165;43.016;25.784;2023-01-26T07:00:14;100654.19;;;3.30;84.86
9523;BME280;63165;43.016;25.784;2023-01-26T07:02:41;100657.63;;;3.31;84.89
9523;BME280;63165;43.016;25.784;2023-01-26T07:05:08;100664.59;;;3.34;85.41
9523;BME280;63165;43.016;25.784;2023-01-26T07:07:37;100666.34;;;3.35;85.23
9523;BME280;63165;43.016;25.784;2023-01-26T07:10:05;100669.81;;;3.35;85.41
9523;BME280;63165;43.016;25.784;2023-01-26T07:12:39;100663.00;;;3.39;85.58
9523;BME280;63165;43.016;25.784;2023-01-26T07:15:08;100662.22;;;3.43;85.40
9523;BME280;63165;43.016;25.784;2023-01-26T07:17:36;100672.63;;;3.44;85.69
9523;BME280;63165;43.016;25.784;2023-01-26T07:20:04;100664.88;;;3.46;85.38
9523;BME280;63165;43.016;25.784;2023-01-26T07:22:32;100670.06;;;3.47;84.87
9523;BME280;63165;43.016;25.784;2023-01-26T07:25:00;100667.44;;;3.46;84.73
9523;BME280;63165;43.016;25.784;2023-01-26T07:27:28;100653.66;;;3.45;84.32
9523;BME280;63165;43.016;25.784;2023-01-26T07:29:55;100659.69;;;3.46;84.42
9523;BME280;63165;43.016;25.784;2023-01-26T07:32:22;100651.97;;;3.47;84.15
9523;BME280;63165;43.016;25.784;2023-01-26T07:34:49;100645.97;;;3.48;84.20
9523;BME280;63165;43.016;25.784;2023-01-26T07:37:17;100645.09;;;3.48;84.31
9523;BME280;63165;43.016;25.784;2023-01-26T07:39:44;100637.34;;;3.48;83.95
9523;BME280;63165;43.016;25.784;2023-01-26T07:42:13;100639.16;;;3.52;83.91
9523;BME280;63165;43.016;25.784;2023-01-26T07:44:40;100643.47;;;3.53;84.27
9523;BME280;63165;43.016;25.784;2023-01-26T07:47:07;100634.91;;;3.56;83.89
9523;BME280;63165;43.016;25.784;2023-01-26T07:49:34;100632.31;;;3.56;84.27
9523;BME280;63165;43.016;25.784;2023-01-26T07:52:02;100630.47;;;3.50;83.58
9523;BME280;63165;43.016;25.784;2023-01-26T07:54:33;100620.13;;;3.50;83.76
9523;BME280;63165;43.016;25.784;2023-01-26T07:57:00;100613.31;;;3.54;83.68
9523;BME280;63165;43.016;25.784;2023-01-26T07:59:29;100624.53;;;3.54;83.60
9523;BME280;63165;43.016;25.784;2023-01-26T08:01:56;100614.19;;;3.54;83.80
9523;BME280;63165;43.016;25.784;2023-01-26T08:04:24;100614.22;;;3.57;83.96
9523;BME280;63165;43.016;25.784;2023-01-26T08:06:51;100615.13;;;3.58;84.02
9523;BME280;63165;43.016;25.784;2023-01-26T08:09:18;100610.91;;;3.63;83.97
9523;BME280;63165;43.016;25.784;2023-01-26T08:11:45;100604.88;;;3.64;84.08
9523;BME280;63165;43.016;25.784;2023-01-26T08:14:13;100604.06;;;3.65;83.76
9523;BME280;63165;43.016;25.784;2023-01-26T08:16:41;100616.19;;;3.67;83.51
9523;BME280;63165;43.016;25.784;2023-01-26T08:19:09;100604.09;;;3.68;83.20
9523;BME280;63165;43.016;25.784;2023-01-26T08:21:37;100605.03;;;3.72;83.22
9523;BME280;63165;43.016;25.784;2023-01-26T08:24:05;100607.69;;;3.75;83.50
9523;BME280;63165;43.016;25.784;2023-01-26T08:26:32;100600.88;;;3.78;83.06
9523;BME280;63165;43.016;25.784;2023-01-26T08:29:00;100605.22;;;3.81;83.46
9523;BME280;63165;43.016;25.784;2023-01-26T08:31:27;100592.38;;;3.85;83.04
9523;BME280;63165;43.016;25.784;2023-01-26T08:33:56;100595.91;;;3.89;83.11
9523;BME280;63165;43.016;25.784;2023-01-26T08:36:23;100592.50;;;3.92;82.83
9523;BME280;63165;43.016;25.784;2023-01-26T08:39:00;100595.19;;;3.98;82.79
9523;BME280;63165;43.016;25.784;2023-01-26T08:41:27;100590.13;;;4.02;82.83
9523;BME280;63165;43.016;25.784;2023-01-26T08:43:54;100578.94;;;4.05;82.56
9523;BME280;63165;43.016;25.784;2023-01-26T08:46:25;100576.41;;;4.08;82.57
9523;BME280;63165;43.016;25.784;2023-01-26T08:48:52;100565.28;;;4.14;82.96
9523;BME280;63165;43.016;25.784;2023-01-26T08:51:21;100555.00;;;4.18;82.78
9523;BME280;63165;43.016;25.784;2023-01-26T08:53:48;100554.16;;;4.19;82.04
9523;BME280;63165;43.016;25.784;2023-01-26T08:56:16;100546.47;;;4.24;81.85
9523;BME280;63165;43.016;25.784;2023-01-26T08:58:43;100548.19;;;4.23;81.31
9523;BME280;63165;43.016;25.784;2023-01-26T09:01:12;100544.72;;;4.24;81.29
9523;BME280;63165;43.016;25.784;2023-01-26T09:03:40;100548.25;;;4.26;81.66
9523;BME280;63165;43.016;25.784;2023-01-26T09:06:09;100555.19;;;4.29;81.39
9523;BME280;63165;43.016;25.784;2023-01-26T09:08:38;100552.66;;;4.32;81.70
9523;BME280;63165;43.016;25.784;2023-01-26T09:11:06;100551.88;;;4.36;81.54
9523;BME280;63165;43.016;25.784;2023-01-26T09:13:33;100552.78;;;4.40;81.62
9523;BME280;63165;43.016;25.784;2023-01-26T09:16:03;100554.50;;;4.41;81.42
9523;BME280;63165;43.016;25.784;2023-01-26T09:18:30;100558.03;;;4.44;81.22
9523;BME280;63165;43.016;25.784;2023-01-26T09:21:02;100544.28;;;4.47;81.36
9523;BME280;63165;43.016;25.784;2023-01-26T09:23:30;100544.34;;;4.52;81.47
9523;BME280;63165;43.016;25.784;2023-01-26T09:25:59;100545.38;;;4.63;81.70
9523;BME280;63165;43.016;25.784;2023-01-26T09:28:27;100540.28;;;4.69;81.53
9523;BME280;63165;43.016;25.784;2023-01-26T09:30:54;100546.44;;;4.76;81.36
9523;BME280;63165;43.016;25.784;2023-01-26T09:33:22;100544.78;;;4.82;81.00
9523;BME280;63165;43.016;25.784;2023-01-26T09:35:51;100536.22;;;4.86;80.69
9523;BME280;63165;43.016;25.784;2023-01-26T09:38:18;100525.88;;;4.90;80.88
9523;BME280;63165;43.016;25.784;2023-01-26T09:40:53;100527.66;;;4.92;80.35
9523;BME280;63165;43.016;25.784;2023-01-26T09:43:31;100518.16;;;4.93;79.82
9523;BME280;63165;43.016;25.784;2023-01-26T09:46:14;100511.25;;;4.93;79.90
9523;BME280;63165;43.016;25.784;2023-01-26T09:48:52;100508.69;;;4.96;79.84
9523;BME280;63165;43.016;25.784;2023-01-26T09:51:27;100505.25;;;4.99;79.72
9523;BME280;63165;43.016;25.784;2023-01-26T09:54:03;100509.59;;;4.98;79.92
9523;BME280;63165;43.016;25.784;2023-01-26T09:56:31;100501.84;;;5.00;79.69
9523;BME280;63165;43.016;25.784;2023-01-26T09:59:20;100491.44;;;4.98;79.46
9523;BME280;63165;43.016;25.784;2023-01-26T10:01:55;100490.50;;;4.93;79.06
9523;BME280;63165;43.016;25.784;2023-01-26T10:04:29;100487.00;;;4.91;79.05
9523;BME280;63165;43.016;25.784;2023-01-26T10:07:03;100470.63;;;4.94;79.37
9523;BME280;63165;43.016;25.784;2023-01-26T10:09:34;100466.34;;;4.97;79.29
9523;BME280;63165;43.016;25.784;2023-01-26T10:12:06;100462.91;;;4.98;79.15
9523;BME280;63165;43.016;25.784;2023-01-26T10:14:38;100458.63;;;5.02;79.14
9523;BME280;63165;43.016;25.784;2023-01-26T10:17:14;100460.47;;;5.09;79.29
9523;BME280;63165;43.016;25.784;2023-01-26T10:19:46;100444.13;;;5.16;79.26
9523;BME280;63165;43.016;25.784;2023-01-26T10:22:17;100441.59;;;5.22;79.50
9523;BME280;63165;43.016;25.784;2023-01-26T10:24:48;100434.72;;;5.29;79.52
9523;BME280;63165;43.016;25.784;2023-01-26T10:27:17;100424.47;;;5.37;79.74
9523;BME280;63165;43.016;25.784;2023-01-26T10:29:46;100418.44;;;5.44;79.12
9523;BME280;63165;43.016;25.784;2023-01-26T10:32:16;100416.81;;;5.51;78.98
9523;BME280;63165;43.016;25.784;2023-01-26T10:34:44;100416.03;;;5.59;78.85
9523;BME280;63165;43.016;25.784;2023-01-26T10:37:19;100406.59;;;5.68;78.76
9523;BME280;63165;43.016;25.784;2023-01-26T10:39:57;100413.56;;;5.75;78.25
9523;BME280;63165;43.016;25.784;2023-01-26T10:42:27;100411.88;;;5.81;77.74
9523;BME280;63165;43.016;25.784;2023-01-26T10:44:58;100404.16;;;5.86;77.64
9523;BME280;63165;43.016;25.784;2023-01-26T10:47:27;100403.22;;;5.79;77.73
9523;BME280;63165;43.016;25.784;2023-01-26T10:50:14;100398.03;;;5.81;77.86
9523;BME280;63165;43.016;25.784;2023-01-26T10:52:56;100392.00;;;5.85;77.52
9523;BME280;63165;43.016;25.784;2023-01-26T10:55:24;100380.75;;;5.83;77.70
9523;BME280;63165;43.016;25.784;2023-01-26T10:57:51;100384.22;;;5.85;77.40
9523;BME280;63165;43.016;25.784;2023-01-26T11:00:26;100375.56;;;5.84;77.35
9523;BME280;63165;43.016;25.784;2023-01-26T11:03:00;100356.53;;;5.87;77.14
9523;BME280;63165;43.016;25.784;2023-01-26T11:05:30;100355.66;;;5.87;76.44
9523;BME280;63165;43.016;25.784;2023-01-26T11:07:58;100347.91;;;5.90;76.80
9523;BME280;63165;43.016;25.784;2023-01-26T11:10:30;100340.13;;;5.93;76.91
9523;BME280;63165;43.016;25.784;2023-01-26T11:13:15;100335.81;;;5.92;76.03
9523;BME280;63165;43.016;25.784;2023-01-26T11:15:47;100328.84;;;5.91;76.09
9523;BME280;63165;43.016;25.784;2023-01-26T11:18:23;100328.84;;;5.91;75.98
9523;BME280;63165;43.016;25.784;2023-01-26T11:20:57;100328.88;;;5.92;75.79
9523;BME280;63165;43.016;25.784;2023-01-26T11:23:36;100324.56;;;5.94;75.74
9523;BME280;63165;43.016;25.784;2023-01-26T11:29:46;100289.94;;;5.94;75.84
9523;BME280;63165;43.016;25.784;2023-01-26T11:32:23;100288.25;;;5.96;75.80
9523;BME280;63165;43.016;25.784;2023-01-26T11:35:05;100294.31;;;5.99;76.14
9523;BME280;63165;43.016;25.784;2023-01-26T11:37:42;100284.81;;;6.01;76.31
9523;BME280;63165;43.016;25.784;2023-01-26T11:40:21;100284.81;;;6.03;76.80
9523;BME280;63165;43.016;25.784;2023-01-26T11:43:02;100281.34;;;6.01;76.61
9523;BME280;63165;43.016;25.784;2023-01-26T11:45:37;100276.19;;;6.02;76.62
9523;BME280;63165;43.016;25.784;2023-01-26T11:48:16;100274.44;;;6.01;76.08
9523;BME280;63165;43.016;25.784;2023-01-26T11:50:49;100275.28;;;6.02;75.70
9523;BME280;63165;43.016;25.784;2023-01-26T11:56:37;100257.97;;;6.01;75.78
9523;BME280;63165;43.016;25.784;2023-01-26T11:59:12;100250.19;;;5.99;75.57
9523;BME280;63165;43.016;25.784;2023-01-26T12:01:42;100247.59;;;5.99;75.45
9523;BME280;63165;43.016;25.784;2023-01-26T12:04:18;100240.66;;;6.01;75.27
9523;BME280;63165;43.016;25.784;2023-01-26T12:06:47;100242.41;;;6.06;75.21
9523;BME280;63165;43.016;25.784;2023-01-26T12:09:21;100236.31;;;6.02;75.42
9523;BME280;63165;43.016;25.784;2023-01-26T12:12:00;100240.66;;;6.00;75.27
9523;BME280;63165;43.016;25.784;2023-01-26T12:14:34;100235.47;;;6.01;75.58
9523;BME280;63165;43.016;25.784;2023-01-26T12:17:26;100240.69;;;6.03;75.75
9523;BME280;63165;43.016;25.784;2023-01-26T12:20:01;100241.53;;;6.00;75.26
9523;BME280;63165;43.016;25.784;2023-01-26T12:22:35;100238.91;;;5.97;75.47
9523;BME280;63165;43.016;25.784;2023-01-26T12:25:14;100236.25;;;5.94;75.67
9523;BME280;63165;43.016;25.784;2023-01-26T12:27:51;100241.47;;;5.91;75.83
9523;BME280;63165;43.016;25.784;2023-01-26T12:30:28;100237.97;;;5.92;76.21
9523;BME280;63165;43.016;25.784;2023-01-26T12:32:57;100243.19;;;5.94;76.69
9523;BME280;63165;43.016;25.784;2023-01-26T12:35:36;100232.84;;;5.95;76.53
9523;BME280;63165;43.016;25.784;2023-01-26T12:38:13;100230.19;;;5.92;76.61
9523;BME280;63165;43.016;25.784;2023-01-26T12:40:51;100231.94;;;5.92;76.77
9523;BME280;63165;43.016;25.784;2023-01-26T12:43:35;100231.91;;;5.90;76.85
9523;BME280;63165;43.016;25.784;2023-01-26T12:46:07;100227.59;;;5.92;77.00
9523;BME280;63165;43.016;25.784;2023-01-26T12:48:39;100227.59;;;5.94;76.98
9523;BME280;63165;43.016;25.784;2023-01-26T12:51:15;100218.13;;;5.96;77.00
9523;BME280;63165;43.016;25.784;2023-01-26T12:53:51;100221.59;;;5.98;77.37
9523;BME280;63165;43.016;25.784;2023-01-26T12:56:24;100219.00;;;5.99;77.73
9523;BME280;63165;43.016;25.784;2023-01-26T12:58:54;100218.16;;;5.99;77.78
9523;BME280;63165;43.016;25.784;2023-01-26T13:01:26;100219.00;;;5.99;77.66
9523;BME280;63165;43.016;25.784;2023-01-26T13:04:06;100215.56;;;6.00;77.80
9523;BME280;63165;43.016;25.784;2023-01-26T13:06:36;100208.63;;;6.01;77.81
9523;BME280;63165;43.016;25.784;2023-01-26T13:09:18;100206.91;;;6.01;77.91
9523;BME280;63165;43.016;25.784;2023-01-26T13:11:51;100200.84;;;5.99;77.25
9523;BME280;63165;43.016;25.784;2023-01-26T13:14:29;100187.84;;;5.98;77.46
9523;BME280;63165;43.016;25.784;2023-01-26T13:20:24;100174.00;;;5.99;77.46
9523;BME280;63165;43.016;25.784;2023-01-26T13:22:54;100165.31;;;5.98;77.46
9523;BME280;63165;43.016;25.784;2023-01-26T13:25:28;100161.03;;;6.00;77.59
9523;BME280;63165;43.016;25.784;2023-01-26T13:27:59;100160.13;;;6.00;77.54
9523;BME280;63165;43.016;25.784;2023-01-26T13:30:33;100167.06;;;5.99;77.98